sensor_id;sensor_type;location;lat;lon;timestamp;temperature;humidity
54124;DHT22;55741;53.252;5.788;2023-07-31T00:00:51;17.10;99.90
54124;DHT22;55741;53.252;5.788;2023-07-31T00:03:16;17.00;99.90
54124;DHT22;55741;53.252;5.788;2023-07-31T00:05:42;17.00;99.90
54124;DHT22;55741;53.252;5.788;2023-07-31T00:08:09;17.00;99.90
54124;DHT22;55741;53.252;5.788;2023-07-31T00:10:35;17.00;99.90
54124;DHT22;55741;53.252;5.788;2023-07-31T00:13:01;17.00;99.90
54124;DHT22;55741;53.252;5.788;2023-07-31T00:15:27;17.00;99.90
54124;DHT22;55741;53.252;5.788;2023-07-31T00:17:53;17.00;99.90
54124;DHT22;55741;53.252;5.788;2023-07-31T00:20:19;17.00;99.90
54124;DHT22;55741;53.252;5.788;2023-07-31T00:22:44;17.00;99.90
54124;DHT22;55741;53.252;5.788;2023-07-31T00:25:10;17.00;99.90
54124;DHT22;55741;53.252;5.788;2023-07-31T00:27:36;16.90;99.90
54124;DHT22;55741;53.252;5.788;2023-07-31T00:30:02;17.00;99.90
54124;DHT22;55741;53.252;5.788;2023-07-31T00:32:28;16.90;99.90
54124;DHT22;55741;53.252;5.788;2023-07-31T00:34:54;16.90;99.90
54124;DHT22;55741;53.252;5.788;2023-07-31T00:37:20;16.90;99.90
54124;DHT22;55741;53.252;5.788;2023-07-31T00:39:46;16.90;99.90
54124;DHT22;55741;53.252;5.788;2023-07-31T00:42:13;16.90;99.90
54124;DHT22;55741;53.252;5.788;2023-07-31T00:44:39;16.90;99.90
54124;DHT22;55741;53.252;5.788;2023-07-31T00:47:05;16.90;99.90
54124;DHT22;55741;53.252;5.788;2023-07-31T00:49:31;16.90;99.90
54124;DHT22;55741;53.252;5.788;2023-07-31T00:51:57;16.90;99.90
54124;DHT22;55741;53.252;5.788;2023-07-31T00:54:23;16.90;99.90
54124;DHT22;55741;53.252;5.788;2023-07-31T00:56:50;16.90;99.90
54124;DHT22;55741;53.252;5.788;2023-07-31T00:59:18;16.80;99.90
54124;DHT22;55741;53.252;5.788;2023-07-31T01:01:44;16.80;99.90
54124;DHT22;55741;53.252;5.788;2023-07-31T01:04:11;16.80;99.90
54124;DHT22;55741;53.252;5.788;2023-07-31T01:06:48;16.80;99.90
54124;DHT22;55741;53.252;5.788;2023-07-31T01:12:07;16.80;99.90
54124;DHT22;55741;53.252;5.788;2023-07-31T01:14:34;16.80;99.90
54124;DHT22;55741;53.252;5.788;2023-07-31T01:17:00;16.70;99.90
54124;DHT22;55741;53.252;5.788;2023-07-31T01:19:26;16.70;99.90
54124;DHT22;55741;53.252;5.788;2023-07-31T01:27:35;16.70;99.90
54124;DHT22;55741;53.252;5.788;2023-07-31T01:30:09;16.60;99.90
54124;DHT22;55741;53.252;5.788;2023-07-31T01:32:41;16.60;99.90
54124;DHT22;55741;53.252;5.788;2023-07-31T01:35:08;16.60;99.90
54124;DHT22;55741;53.252;5.788;2023-07-31T01:37:34;16.60;99.90
54124;DHT22;55741;53.252;5.788;2023-07-31T01:40:00;16.60;99.90
54124;DHT22;55741;53.252;5.788;2023-07-31T01:42:28;16.60;99.90
54124;DHT22;55741;53.252;5.788;2023-07-31T01:44:53;16.60;99.90
54124;DHT22;55741;53.252;5.788;2023-07-31T01:47:19;16.50;99.90
54124;DHT22;55741;53.252;5.788;2023-07-31T01:49:45;16.50;99.90
54124;DHT22;55741;53.252;5.788;2023-07-31T01:52:11;16.50;99.90
54124;DHT22;55741;53.252;5.788;2023-07-31T01:54:37;16.50;99.90
54124;DHT22;55741;53.252;5.788;2023-07-31T01:57:03;16.50;99.90
54124;DHT22;55741;53.252;5.788;2023-07-31T01:59:28;16.50;99.90
54124;DHT22;55741;53.252;5.788;2023-07-31T02:01:54;16.50;99.90
54124;DHT22;55741;53.252;5.788;2023-07-31T02:04:20;16.50;99.90
54124;DHT22;55741;53.252;5.788;2023-07-31T02:06:46;16.50;99.90
54124;DHT22;55741;53.252;5.788;2023-07-31T02:09:12;16.40;99.90
54124;DHT22;55741;53.252;5.788;2023-07-31T02:11:37;16.40;99.90
54124;DHT22;55741;53.252;5.788;2023-07-31T02:14:03;16.40;99.90
54124;DHT22;55741;53.252;5.788;2023-07-31T02:16:29;16.40;99.90
54124;DHT22;55741;53.252;5.788;2023-07-31T02:18:55;16.40;99.90
54124;DHT22;55741;53.252;5.788;2023-07-31T02:21:21;16.40;99.90
54124;DHT22;55741;53.252;5.788;2023-07-31T02:23:46;16.40;99.90
54124;DHT22;55741;53.252;5.788;2023-07-31T02:26:12;16.40;99.90
54124;DHT22;55741;53.252;5.788;2023-07-31T02:28:38;16.40;99.90
54124;DHT22;55741;53.252;5.788;2023-07-31T02:31:04;16.40;99.90
54124;DHT22;55741;53.252;5.788;2023-07-31T02:33:30;16.30;99.90
54124;DHT22;55741;53.252;5.788;2023-07-31T02:35:55;16.30;99.90
54124;DHT22;55741;53.252;5.788;2023-07-31T02:38:21;16.30;99.90
54124;DHT22;55741;53.252;5.788;2023-07-31T02:40:47;16.30;99.90
54124;DHT22;55741;53.252;5.788;2023-07-31T02:43:15;16.30;99.90
54124;DHT22;55741;53.252;5.788;2023-07-31T02:45:41;16.20;99.90
54124;DHT22;55741;53.252;5.788;2023-07-31T02:48:06;16.20;99.90
54124;DHT22;55741;53.252;5.788;2023-07-31T02:50:33;16.20;99.90
54124;DHT22;55741;53.252;5.788;2023-07-31T02:52:58;16.20;99.90
54124;DHT22;55741;53.252;5.788;2023-07-31T02:55:24;16.20;99.90
54124;DHT22;55741;53.252;5.788;2023-07-31T02:57:50;16.20;99.90
54124;DHT22;55741;53.252;5.788;2023-07-31T03:00:18;16.20;99.90
54124;DHT22;55741;53.252;5.788;2023-07-31T03:02:43;16.20;99.90
54124;DHT22;55741;53.252;5.788;2023-07-31T03:05:09;16.20;99.90
54124;DHT22;55741;53.252;5.788;2023-07-31T03:07:55;16.20;99.90
54124;DHT22;55741;53.252;5.788;2023-07-31T03:10:21;16.20;99.90
54124;DHT22;55741;53.252;5.788;2023-07-31T03:12:47;16.20;99.90
54124;DHT22;55741;53.252;5.788;2023-07-31T03:15:13;16.20;99.90
54124;DHT22;55741;53.252;5.788;2023-07-31T03:17:39;16.20;99.90
54124;DHT22;55741;53.252;5.788;2023-07-31T03:20:05;16.20;99.90
54124;DHT22;55741;53.252;5.788;2023-07-31T03:22:31;16.10;99.90
54124;DHT22;55741;53.252;5.788;2023-07-31T03:24:57;16.10;99.90
54124;DHT22;55741;53.252;5.788;2023-07-31T03:27:23;16.00;99.90
54124;DHT22;55741;53.252;5.788;2023-07-31T03:29:49;16.00;99.90
54124;DHT22;55741;53.252;5.788;2023-07-31T03:32:16;15.90;99.90
54124;DHT22;55741;53.252;5.788;2023-07-31T03:34:42;16.00;99.90
54124;DHT22;55741;53.252;5.788;2023-07-31T03:37:08;16.00;99.90
54124;DHT22;55741;53.252;5.788;2023-07-31T03:39:35;15.90;99.90
54124;DHT22;55741;53.252;5.788;2023-07-31T03:42:01;15.90;99.90
54124;DHT22;55741;53.252;5.788;2023-07-31T03:44:28;15.90;99.90
54124;DHT22;55741;53.252;5.788;2023-07-31T03:46:54;15.90;99.90
54124;DHT22;55741;53.252;5.788;2023-07-31T03:49:20;15.90;99.90
54124;DHT22;55741;53.252;5.788;2023-07-31T03:51:45;15.80;99.90
54124;DHT22;55741;53.252;5.788;2023-07-31T03:54:11;15.80;99.90
54124;DHT22;55741;53.252;5.788;2023-07-31T03:56:38;15.80;99.90
54124;DHT22;55741;53.252;5.788;2023-07-31T03:59:04;15.80;99.90
54124;DHT22;55741;53.252;5.788;2023-07-31T04:01:30;15.80;99.90
54124;DHT22;55741;53.252;5.788;2023-07-31T04:03:56;15.80;99.90
54124;DHT22;55741;53.252;5.788;2023-07-31T04:06:22;15.80;99.90
54124;DHT22;55741;53.252;5.788;2023-07-31T04:08:47;15.80;99.90
54124;DHT22;55741;53.252;5.788;2023-07-31T04:11:13;15.90;99.90
54124;DHT22;55741;53.252;5.788;2023-07-31T04:13:39;15.80;99.90
54124;DHT22;55741;53.252;5.788;2023-07-31T04:16:05;15.80;99.90
54124;DHT22;55741;53.252;5.788;2023-07-31T04:18:31;15.80;99.90
54124;DHT22;55741;53.252;5.788;2023-07-31T04:20:58;15.90;99.90
54124;DHT22;55741;53.252;5.788;2023-07-31T04:23:25;15.90;99.90
54124;DHT22;55741;53.252;5.788;2023-07-31T04:25:51;15.90;99.90
54124;DHT22;55741;53.252;5.788;2023-07-31T04:28:17;16.00;99.90
54124;DHT22;55741;53.252;5.788;2023-07-31T04:30:43;16.00;99.90
54124;DHT22;55741;53.252;5.788;2023-07-31T04:33:09;16.10;99.90
54124;DHT22;55741;53.252;5.788;2023-07-31T04:35:35;16.20;99.90
54124;DHT22;55741;53.252;5.788;2023-07-31T04:38:00;16.20;99.90
54124;DHT22;55741;53.252;5.788;2023-07-31T04:40:26;16.30;99.90
54124;DHT22;55741;53.252;5.788;2023-07-31T04:42:52;16.30;99.90
54124;DHT22;55741;53.252;5.788;2023-07-31T04:45:19;16.30;99.90
54124;DHT22;55741;53.252;5.788;2023-07-31T04:47:45;16.30;99.90
54124;DHT22;55741;53.252;5.788;2023-07-31T04:50:11;16.40;99.90
54124;DHT22;55741;53.252;5.788;2023-07-31T04:52:37;16.40;99.90
54124;DHT22;55741;53.252;5.788;2023-07-31T04:55:03;16.40;99.90
54124;DHT22;55741;53.252;5.788;2023-07-31T04:57:29;16.40;99.90
54124;DHT22;55741;53.252;5.788;2023-07-31T04:59:54;16.40;99.90
54124;DHT22;55741;53.252;5.788;2023-07-31T05:02:20;16.40;99.90
54124;DHT22;55741;53.252;5.788;2023-07-31T05:04:46;16.40;99.90
54124;DHT22;55741;53.252;5.788;2023-07-31T05:07:12;16.40;99.90
54124;DHT22;55741;53.252;5.788;2023-07-31T05:09:38;16.40;99.90
54124;DHT22;55741;53.252;5.788;2023-07-31T05:12:05;16.50;99.90
54124;DHT22;55741;53.252;5.788;2023-07-31T05:14:31;16.40;99.90
54124;DHT22;55741;53.252;5.788;2023-07-31T05:16:57;16.40;99.90
54124;DHT22;55741;53.252;5.788;2023-07-31T05:19:23;16.40;99.90
54124;DHT22;55741;53.252;5.788;2023-07-31T05:21:48;16.40;99.90
54124;DHT22;55741;53.252;5.788;2023-07-31T05:24:14;16.50;99.90
54124;DHT22;55741;53.252;5.788;2023-07-31T05:26:40;16.50;99.90
54124;DHT22;55741;53.252;5.788;2023-07-31T05:29:06;16.50;99.90
54124;DHT22;55741;53.252;5.788;2023-07-31T05:31:31;16.50;99.90
54124;DHT22;55741;53.252;5.788;2023-07-31T05:33:58;16.50;99.90
54124;DHT22;55741;53.252;5.788;2023-07-31T05:36:24;16.50;99.90
54124;DHT22;55741;53.252;5.788;2023-07-31T05:38:49;16.50;99.90
54124;DHT22;55741;53.252;5.788;2023-07-31T05:41:15;16.60;99.90
54124;DHT22;55741;53.252;5.788;2023-07-31T05:43:41;16.60;99.90
54124;DHT22;55741;53.252;5.788;2023-07-31T05:46:10;16.60;99.90
54124;DHT22;55741;53.252;5.788;2023-07-31T05:48:37;16.60;99.90
54124;DHT22;55741;53.252;5.788;2023-07-31T05:51:03;16.70;99.90
54124;DHT22;55741;53.252;5.788;2023-07-31T05:53:29;16.70;99.90
54124;DHT22;55741;53.252;5.788;2023-07-31T05:55:55;16.70;99.90
54124;DHT22;55741;53.252;5.788;2023-07-31T05:58:21;16.70;99.90
54124;DHT22;55741;53.252;5.788;2023-07-31T06:00:47;16.70;99.90
54124;DHT22;55741;53.252;5.788;2023-07-31T06:03:13;16.70;99.90
54124;DHT22;55741;53.252;5.788;2023-07-31T06:05:39;16.70;99.90
54124;DHT22;55741;53.252;5.788;2023-07-31T06:08:04;16.70;99.90
54124;DHT22;55741;53.252;5.788;2023-07-31T06:10:30;16.70;99.90
54124;DHT22;55741;53.252;5.788;2023-07-31T06:12:56;16.80;99.90
54124;DHT22;55741;53.252;5.788;2023-07-31T06:15:23;16.80;99.90
54124;DHT22;55741;53.252;5.788;2023-07-31T06:17:48;16.80;99.90
54124;DHT22;55741;53.252;5.788;2023-07-31T06:20:14;16.80;99.90
54124;DHT22;55741;53.252;5.788;2023-07-31T06:22:40;16.80;99.90
54124;DHT22;55741;53.252;5.788;2023-07-31T06:25:06;16.80;99.90
54124;DHT22;55741;53.252;5.788;2023-07-31T06:27:32;16.80;99.90
54124;DHT22;55741;53.252;5.788;2023-07-31T06:29:58;16.80;99.90
54124;DHT22;55741;53.252;5.788;2023-07-31T06:32:24;16.80;99.90
54124;DHT22;55741;53.252;5.788;2023-07-31T06:34:49;16.80;99.90
54124;DHT22;55741;53.252;5.788;2023-07-31T06:37:16;16.80;99.90
54124;DHT22;55741;53.252;5.788;2023-07-31T06:39:42;16.80;99.90
54124;DHT22;55741;53.252;5.788;2023-07-31T06:42:08;16.80;99.90
54124;DHT22;55741;53.252;5.788;2023-07-31T06:44:33;16.80;99.90
54124;DHT22;55741;53.252;5.788;2023-07-31T06:47:01;16.90;99.90
54124;DHT22;55741;53.252;5.788;2023-07-31T06:49:27;16.80;99.90
54124;DHT22;55741;53.252;5.788;2023-07-31T06:51:52;16.80;99.90
54124;DHT22;55741;53.252;5.788;2023-07-31T06:54:18;16.80;99.90
54124;DHT22;55741;53.252;5.788;2023-07-31T06:56:44;16.90;99.90
54124;DHT22;55741;53.252;5.788;2023-07-31T06:59:10;16.80;99.90
54124;DHT22;55741;53.252;5.788;2023-07-31T07:01:36;16.90;99.90
54124;DHT22;55741;53.252;5.788;2023-07-31T07:04:01;16.90;99.90
54124;DHT22;55741;53.252;5.788;2023-07-31T07:06:27;16.80;99.90
54124;DHT22;55741;53.252;5.788;2023-07-31T07:08:53;16.90;99.90
54124;DHT22;55741;53.252;5.788;2023-07-31T07:11:19;16.90;99.90
54124;DHT22;55741;53.252;5.788;2023-07-31T07:13:45;17.00;99.90
54124;DHT22;55741;53.252;5.788;2023-07-31T07:16:10;17.00;99.90
54124;DHT22;55741;53.252;5.788;2023-07-31T07:18:36;17.00;99.90
54124;DHT22;55741;53.252;5.788;2023-07-31T07:21:02;17.00;99.90
54124;DHT22;55741;53.252;5.788;2023-07-31T07:23:28;17.10;99.90
54124;DHT22;55741;53.252;5.788;2023-07-31T07:25:54;17.20;99.90
54124;DHT22;55741;53.252;5.788;2023-07-31T07:28:20;17.20;99.90
54124;DHT22;55741;53.252;5.788;2023-07-31T07:30:51;17.30;99.90
54124;DHT22;55741;53.252;5.788;2023-07-31T07:33:18;17.30;99.90
54124;DHT22;55741;53.252;5.788;2023-07-31T07:35:43;17.30;99.90
54124;DHT22;55741;53.252;5.788;2023-07-31T07:38:09;17.30;99.90
54124;DHT22;55741;53.252;5.788;2023-07-31T07:40:39;17.30;99.90
54124;DHT22;55741;53.252;5.788;2023-07-31T07:43:05;17.30;99.90
54124;DHT22;55741;53.252;5.788;2023-07-31T07:45:31;17.40;99.90
54124;DHT22;55741;53.252;5.788;2023-07-31T07:47:58;17.40;99.90
54124;DHT22;55741;53.252;5.788;2023-07-31T07:50:24;17.40;99.90
54124;DHT22;55741;53.252;5.788;2023-07-31T07:52:50;17.50;99.90
54124;DHT22;55741;53.252;5.788;2023-07-31T07:55:16;17.50;99.90
54124;DHT22;55741;53.252;5.788;2023-07-31T07:57:42;17.50;99.90
54124;DHT22;55741;53.252;5.788;2023-07-31T08:00:10;17.40;99.90
54124;DHT22;55741;53.252;5.788;2023-07-31T08:02:36;17.50;99.90
54124;DHT22;55741;53.252;5.788;2023-07-31T08:05:02;17.50;99.90
54124;DHT22;55741;53.252;5.788;2023-07-31T08:07:27;17.50;99.90
54124;DHT22;55741;53.252;5.788;2023-07-31T08:09:53;17.60;99.90
54124;DHT22;55741;53.252;5.788;2023-07-31T08:12:19;17.70;99.90
54124;DHT22;55741;53.252;5.788;2023-07-31T08:14:45;17.70;99.90
54124;DHT22;55741;53.252;5.788;2023-07-31T08:17:11;17.90;99.90
54124;DHT22;55741;53.252;5.788;2023-07-31T08:19:36;17.90;99.90
54124;DHT22;55741;53.252;5.788;2023-07-31T08:22:02;17.90;99.90
54124;DHT22;55741;53.252;5.788;2023-07-31T08:24:28;18.00;99.90
54124;DHT22;55741;53.252;5.788;2023-07-31T08:26:54;18.10;99.90
54124;DHT22;55741;53.252;5.788;2023-07-31T08:29:20;18.10;99.90
54124;DHT22;55741;53.252;5.788;2023-07-31T08:31:46;18.20;99.90
54124;DHT22;55741;53.252;5.788;2023-07-31T08:34:11;18.20;99.90
54124;DHT22;55741;53.252;5.788;2023-07-31T08:36:37;18.20;99.90
54124;DHT22;55741;53.252;5.788;2023-07-31T08:39:03;18.30;99.90
54124;DHT22;55741;53.252;5.788;2023-07-31T08:41:29;18.30;99.90
54124;DHT22;55741;53.252;5.788;2023-07-31T08:43:55;18.30;99.90
54124;DHT22;55741;53.252;5.788;2023-07-31T08:46:22;18.30;99.90
54124;DHT22;55741;53.252;5.788;2023-07-31T08:48:51;18.30;99.90
54124;DHT22;55741;53.252;5.788;2023-07-31T08:51:18;18.30;99.90
54124;DHT22;55741;53.252;5.788;2023-07-31T08:53:45;18.20;99.90
54124;DHT22;55741;53.252;5.788;2023-07-31T08:56:11;18.10;99.90
54124;DHT22;55741;53.252;5.788;2023-07-31T08:58:38;18.10;99.90
54124;DHT22;55741;53.252;5.788;2023-07-31T09:01:04;18.10;99.90
54124;DHT22;55741;53.252;5.788;2023-07-31T09:03:34;18.00;99.90
54124;DHT22;55741;53.252;5.788;2023-07-31T09:06:03;18.00;99.90
54124;DHT22;55741;53.252;5.788;2023-07-31T09:08:32;17.90;99.90
54124;DHT22;55741;53.252;5.788;2023-07-31T09:11:01;17.90;99.90
54124;DHT22;55741;53.252;5.788;2023-07-31T09:13:30;18.00;99.90
54124;DHT22;55741;53.252;5.788;2023-07-31T09:15:56;18.00;99.90
54124;DHT22;55741;53.252;5.788;2023-07-31T09:18:22;18.10;99.90
54124;DHT22;55741;53.252;5.788;2023-07-31T09:21:02;18.20;99.90
54124;DHT22;55741;53.252;5.788;2023-07-31T09:23:41;18.30;99.90
54124;DHT22;55741;53.252;5.788;2023-07-31T09:26:07;18.20;99.90
54124;DHT22;55741;53.252;5.788;2023-07-31T09:28:33;18.30;99.90
54124;DHT22;55741;53.252;5.788;2023-07-31T09:30:59;18.30;99.90
54124;DHT22;55741;53.252;5.788;2023-07-31T09:33:24;18.20;99.90
54124;DHT22;55741;53.252;5.788;2023-07-31T09:35:50;18.30;99.90
54124;DHT22;55741;53.252;5.788;2023-07-31T09:38:16;18.30;99.90
54124;DHT22;55741;53.252;5.788;2023-07-31T09:40:44;18.40;99.90
54124;DHT22;55741;53.252;5.788;2023-07-31T09:43:12;18.50;99.90
54124;DHT22;55741;53.252;5.788;2023-07-31T09:45:40;18.50;99.90
54124;DHT22;55741;53.252;5.788;2023-07-31T09:48:08;18.50;99.90
54124;DHT22;55741;53.252;5.788;2023-07-31T09:50:37;18.60;99.90
54124;DHT22;55741;53.252;5.788;2023-07-31T09:53:04;18.60;99.90
54124;DHT22;55741;53.252;5.788;2023-07-31T09:55:30;18.60;99.90
54124;DHT22;55741;53.252;5.788;2023-07-31T09:57:57;18.70;99.90
54124;DHT22;55741;53.252;5.788;2023-07-31T10:00:24;18.80;99.90
54124;DHT22;55741;53.252;5.788;2023-07-31T10:02:54;18.80;99.90
54124;DHT22;55741;53.252;5.788;2023-07-31T10:05:24;18.80;99.90
54124;DHT22;55741;53.252;5.788;2023-07-31T10:07:54;18.80;99.90
54124;DHT22;55741;53.252;5.788;2023-07-31T10:10:22;18.80;99.90
54124;DHT22;55741;53.252;5.788;2023-07-31T10:12:49;18.80;99.90
54124;DHT22;55741;53.252;5.788;2023-07-31T10:15:15;18.80;99.90
54124;DHT22;55741;53.252;5.788;2023-07-31T10:17:42;18.90;99.90
54124;DHT22;55741;53.252;5.788;2023-07-31T10:20:09;18.90;99.90
54124;DHT22;55741;53.252;5.788;2023-07-31T10:22:35;18.90;99.90
54124;DHT22;55741;53.252;5.788;2023-07-31T10:25:02;18.90;99.90
54124;DHT22;55741;53.252;5.788;2023-07-31T10:27:28;18.90;99.90
54124;DHT22;55741;53.252;5.788;2023-07-31T10:29:56;18.90;99.90
54124;DHT22;55741;53.252;5.788;2023-07-31T10:32:23;18.90;99.90
54124;DHT22;55741;53.252;5.788;2023-07-31T10:34:51;19.00;99.90
54124;DHT22;55741;53.252;5.788;2023-07-31T10:37:36;19.10;99.90
54124;DHT22;55741;53.252;5.788;2023-07-31T10:40:07;19.10;99.90
54124;DHT22;55741;53.252;5.788;2023-07-31T10:42:49;19.30;99.90
54124;DHT22;55741;53.252;5.788;2023-07-31T10:45:26;19.30;99.90
54124;DHT22;55741;53.252;5.788;2023-07-31T10:48:02;19.40;99.90
54124;DHT22;55741;53.252;5.788;2023-07-31T10:50:30;19.40;99.90
54124;DHT22;55741;53.252;5.788;2023-07-31T10:53:00;19.40;99.90
54124;DHT22;55741;53.252;5.788;2023-07-31T10:55:33;19.40;99.90
54124;DHT22;55741;53.252;5.788;2023-07-31T10:58:10;19.40;99.90
54124;DHT22;55741;53.252;5.788;2023-07-31T11:00:41;19.40;99.90
54124;DHT22;55741;53.252;5.788;2023-07-31T11:03:09;19.40;99.90
54124;DHT22;55741;53.252;5.788;2023-07-31T11:08:19;19.30;99.90
54124;DHT22;55741;53.252;5.788;2023-07-31T11:10:47;19.40;99.90
54124;DHT22;55741;53.252;5.788;2023-07-31T11:13:13;19.40;99.90
54124;DHT22;55741;53.252;5.788;2023-07-31T11:15:39;19.40;99.90
54124;DHT22;55741;53.252;5.788;2023-07-31T11:18:05;19.40;99.90
54124;DHT22;55741;53.252;5.788;2023-07-31T11:20:34;19.40;99.90
54124;DHT22;55741;53.252;5.788;2023-07-31T11:23:07;19.30;99.90
54124;DHT22;55741;53.252;5.788;2023-07-31T11:25:34;19.10;99.90
54124;DHT22;55741;53.252;5.788;2023-07-31T11:28:07;19.10;99.90
54124;DHT22;55741;53.252;5.788;2023-07-31T11:30:34;19.10;99.90
54124;DHT22;55741;53.252;5.788;2023-07-31T11:33:03;19.10;99.90
54124;DHT22;55741;53.252;5.788;2023-07-31T11:35:49;19.10;99.90
54124;DHT22;55741;53.252;5.788;2023-07-31T11:38:22;19.20;99.90
54124;DHT22;55741;53.252;5.788;2023-07-31T11:40:49;19.30;99.90
54124;DHT22;55741;53.252;5.788;2023-07-31T11:43:15;19.30;99.90
54124;DHT22;55741;53.252;5.788;2023-07-31T11:45:48;19.40;99.90
54124;DHT22;55741;53.252;5.788;2023-07-31T11:48:34;19.50;99.90
54124;DHT22;55741;53.252;5.788;2023-07-31T11:51:06;19.60;99.90
54124;DHT22;55741;53.252;5.788;2023-07-31T11:56:10;19.60;99.90
54124;DHT22;55741;53.252;5.788;2023-07-31T11:58:38;19.60;99.90
54124;DHT22;55741;53.252;5.788;2023-07-31T12:01:05;19.60;99.90
54124;DHT22;55741;53.252;5.788;2023-07-31T12:03:31;19.70;99.90
54124;DHT22;55741;53.252;5.788;2023-07-31T12:05:58;19.70;99.90
54124;DHT22;55741;53.252;5.788;2023-07-31T12:08:25;19.70;99.90
54124;DHT22;55741;53.252;5.788;2023-07-31T12:10:52;19.70;99.90
54124;DHT22;55741;53.252;5.788;2023-07-31T12:13:23;19.70;99.90
54124;DHT22;55741;53.252;5.788;2023-07-31T12:15:54;19.60;99.90
54124;DHT22;55741;53.252;5.788;2023-07-31T12:18:22;19.50;99.90
54124;DHT22;55741;53.252;5.788;2023-07-31T12:20:49;19.60;99.90
54124;DHT22;55741;53.252;5.788;2023-07-31T12:23:24;19.50;99.90
54124;DHT22;55741;53.252;5.788;2023-07-31T12:28:48;19.50;99.90
54124;DHT22;55741;53.252;5.788;2023-07-31T12:31:27;19.50;99.90
54124;DHT22;55741;53.252;5.788;2023-07-31T12:33:53;19.50;99.90
54124;DHT22;55741;53.252;5.788;2023-07-31T12:36:23;19.50;99.90
54124;DHT22;55741;53.252;5.788;2023-07-31T12:38:50;19.50;99.90
54124;DHT22;55741;53.252;5.788;2023-07-31T12:41:16;19.50;99.90
54124;DHT22;55741;53.252;5.788;2023-07-31T12:43:43;19.50;99.90
54124;DHT22;55741;53.252;5.788;2023-07-31T12:46:09;19.50;99.90
54124;DHT22;55741;53.252;5.788;2023-07-31T12:48:39;19.40;99.90
54124;DHT22;55741;53.252;5.788;2023-07-31T12:51:05;19.30;99.90
54124;DHT22;55741;53.252;5.788;2023-07-31T12:53:32;19.30;99.90
54124;DHT22;55741;53.252;5.788;2023-07-31T12:56:00;19.30;99.90
54124;DHT22;55741;53.252;5.788;2023-07-31T12:58:26;19.20;99.90
54124;DHT22;55741;53.252;5.788;2023-07-31T13:00:52;19.20;99.90
54124;DHT22;55741;53.252;5.788;2023-07-31T13:03:18;19.10;99.90
54124;DHT22;55741;53.252;5.788;2023-07-31T13:05:43;19.10;99.90
54124;DHT22;55741;53.252;5.788;2023-07-31T13:08:09;19.10;99.90
54124;DHT22;55741;53.252;5.788;2023-07-31T13:10:35;19.20;99.90
54124;DHT22;55741;53.252;5.788;2023-07-31T13:13:01;19.30;99.90
54124;DHT22;55741;53.252;5.788;2023-07-31T13:15:27;19.40;99.90
54124;DHT22;55741;53.252;5.788;2023-07-31T13:17:52;19.40;99.90
54124;DHT22;55741;53.252;5.788;2023-07-31T13:20:18;19.60;99.90
54124;DHT22;55741;53.252;5.788;2023-07-31T13:22:44;19.60;99.90
54124;DHT22;55741;53.252;5.788;2023-07-31T13:25:10;19.70;99.90
54124;DHT22;55741;53.252;5.788;2023-07-31T13:27:36;19.80;99.90
54124;DHT22;55741;53.252;5.788;2023-07-31T13:30:02;19.80;99.90
54124;DHT22;55741;53.252;5.788;2023-07-31T13:32:29;19.90;99.90
54124;DHT22;55741;53.252;5.788;2023-07-31T13:34:55;20.00;99.90
54124;DHT22;55741;53.252;5.788;2023-07-31T13:37:20;20.10;99.90
54124;DHT22;55741;53.252;5.788;2023-07-31T13:39:46;20.10;99.90
54124;DHT22;55741;53.252;5.788;2023-07-31T13:42:12;20.20;99.90
54124;DHT22;55741;53.252;5.788;2023-07-31T13:44:39;20.20;99.90
54124;DHT22;55741;53.252;5.788;2023-07-31T13:47:05;20.20;99.90
54124;DHT22;55741;53.252;5.788;2023-07-31T13:49:31;20.10;99.90
54124;DHT22;55741;53.252;5.788;2023-07-31T13:51:58;20.10;99.90
54124;DHT22;55741;53.252;5.788;2023-07-31T13:54:24;20.10;99.90
54124;DHT22;55741;53.252;5.788;2023-07-31T13:56:52;20.00;99.90
54124;DHT22;55741;53.252;5.788;2023-07-31T13:59:19;19.90;99.90
54124;DHT22;55741;53.252;5.788;2023-07-31T14:01:45;19.90;99.90
54124;DHT22;55741;53.252;5.788;2023-07-31T14:04:11;19.90;99.90
54124;DHT22;55741;53.252;5.788;2023-07-31T14:06:37;19.80;99.90
54124;DHT22;55741;53.252;5.788;2023-07-31T14:09:03;19.80;99.90
54124;DHT22;55741;53.252;5.788;2023-07-31T14:11:31;19.80;99.90
54124;DHT22;55741;53.252;5.788;2023-07-31T14:13:57;19.70;99.90
54124;DHT22;55741;53.252;5.788;2023-07-31T14:16:23;19.70;99.90
54124;DHT22;55741;53.252;5.788;2023-07-31T14:18:49;19.80;99.90
54124;DHT22;55741;53.252;5.788;2023-07-31T14:21:15;19.70;99.90
54124;DHT22;55741;53.252;5.788;2023-07-31T14:23:41;19.70;99.90
54124;DHT22;55741;53.252;5.788;2023-07-31T14:26:08;19.70;99.90
54124;DHT22;55741;53.252;5.788;2023-07-31T14:28:34;19.60;99.90
54124;DHT22;55741;53.252;5.788;2023-07-31T14:30:59;19.70;99.90
54124;DHT22;55741;53.252;5.788;2023-07-31T14:33:25;19.60;99.90
54124;DHT22;55741;53.252;5.788;2023-07-31T14:35:51;19.50;99.90
54124;DHT22;55741;53.252;5.788;2023-07-31T14:38:17;19.50;99.90
54124;DHT22;55741;53.252;5.788;2023-07-31T14:40:43;19.50;99.90
54124;DHT22;55741;53.252;5.788;2023-07-31T14:43:09;19.50;99.90
54124;DHT22;55741;53.252;5.788;2023-07-31T14:45:35;19.50;99.90
54124;DHT22;55741;53.252;5.788;2023-07-31T14:48:01;19.50;99.90
54124;DHT22;55741;53.252;5.788;2023-07-31T14:50:27;19.40;99.90
54124;DHT22;55741;53.252;5.788;2023-07-31T14:52:53;19.40;99.90
54124;DHT22;55741;53.252;5.788;2023-07-31T14:55:19;19.40;99.90
54124;DHT22;55741;53.252;5.788;2023-07-31T14:57:46;19.40;99.90
54124;DHT22;55741;53.252;5.788;2023-07-31T15:00:12;19.30;99.90
54124;DHT22;55741;53.252;5.788;2023-07-31T15:02:38;19.40;99.90
54124;DHT22;55741;53.252;5.788;2023-07-31T15:05:05;19.30;99.90
54124;DHT22;55741;53.252;5.788;2023-07-31T15:07:31;19.30;99.90
54124;DHT22;55741;53.252;5.788;2023-07-31T15:09:57;19.30;99.90
54124;DHT22;55741;53.252;5.788;2023-07-31T15:12:23;19.30;99.90
54124;DHT22;55741;53.252;5.788;2023-07-31T15:14:49;19.30;99.90
54124;DHT22;55741;53.252;5.788;2023-07-31T15:17:15;19.30;99.90
54124;DHT22;55741;53.252;5.788;2023-07-31T15:19:41;19.20;99.90
54124;DHT22;55741;53.252;5.788;2023-07-31T15:22:08;19.30;99.90
54124;DHT22;55741;53.252;5.788;2023-07-31T15:24:33;19.30;99.90
54124;DHT22;55741;53.252;5.788;2023-07-31T15:27:02;19.20;99.90
54124;DHT22;55741;53.252;5.788;2023-07-31T15:29:29;19.20;99.90
54124;DHT22;55741;53.252;5.788;2023-07-31T15:31:55;19.20;99.90
54124;DHT22;55741;53.252;5.788;2023-07-31T15:34:21;19.20;99.90
54124;DHT22;55741;53.252;5.788;2023-07-31T15:36:47;19.30;99.90
54124;DHT22;55741;53.252;5.788;2023-07-31T15:39:13;19.20;99.90
54124;DHT22;55741;53.252;5.788;2023-07-31T15:41:40;19.20;99.90
54124;DHT22;55741;53.252;5.788;2023-07-31T15:44:06;19.20;99.90